Whiteside, Missouri
Current Conditions -  °F | °C
As of 8:35 AM on Monday 26 Jan 2015 (Local Time) from KPPQ Reporting Station
Overcast Overcast  
Wind Chill: 23°   Ceiling: 2200
Heat Index: 28°   Visibility: 10mi
Dew Point: 24°   Wind: 5mph
Humidity: 85%   Direction: 180°S
Pressure: 30.03"   Gusts: NA
Location:  39.19°N, 91.02°W
Report Text: KPPQ 261435Z AUTO 18004KT 10SM OVC022 M02/M04 A3003 RMK AO2 T10201042
Loading
Personal Weather Stations






























Interactive Weather Map New forecast layout! Learn more

10-Day Weather Forecast

Advertisements
Track Severe Weather on mobile